CW8593 Gava ES current weather conditions

sailwx.info

Wind from 210 at 5 knots gusting 10

Air temperature 19.4° C
Dewpoint 12.2° C

Last reported at 2017-Mar-30 13:53 UTC.
Time now 2017-Mar-30 14:54 UTC

Location: N 41°18' E 001°60'.
View on Google Maps.

See reports from other nearby stations

  
Tides and Currents Weather Stations Pressure Air Temp Water Temp Dewpoint Dewpoint Depression Visibility Wind Speed Wind Dir Waves Ship Positions
date/time (UTC)wind fromknots sea level pressurealtimeterstation pressurevisibilityair tempwater tempwave heightnotes
2017-Mar-30 14:23 202 8 gusting 13 18.9
2017-Mar-30 14:13 203 5 gusting 11 18.9
2017-Mar-30 14:03 223 6 gusting 11 18.9
2017-Mar-30 13:53 210 5 gusting 10 19.4
2017-Mar-30 13:43 214 6 gusting 13 18.9
2017-Mar-30 13:33 205 5 gusting 12 18.9
2017-Mar-30 13:28 203 5 gusting 10 19.4
2017-Mar-30 13:23 226 3 gusting 12 19.4
2017-Mar-30 13:18 218 6 gusting 13 18.9
2017-Mar-30 13:13 236 7 gusting 12 18.9
2017-Mar-30 13:03 194 7 gusting 13 18.9
2017-Mar-30 12:48 188 4 gusting 11 18.9
2017-Mar-30 12:43 200 8 gusting 14 18.9
2017-Mar-30 12:38 204 6 gusting 13 18.9
2017-Mar-30 12:33 198 8 gusting 13 18.9
2017-Mar-30 12:23 203 7 gusting 12 18.9
2017-Mar-30 12:18 205 6 gusting 14 18.9
2017-Mar-30 12:13 192 9 gusting 13 18.9
2017-Mar-30 11:53 198 6 gusting 13 18.9
2017-Mar-30 11:48 163 4 gusting 8 18.9
2017-Mar-30 11:33 196 5 gusting 13 18.9
2017-Mar-30 11:28 218 7 gusting 13 18.3
2017-Mar-30 11:23 192 7 gusting 13 18.3
2017-Mar-30 11:18 196 7 gusting 13 18.3
2017-Mar-30 11:13 188 5 gusting 10 18.3
2017-Mar-30 11:08 208 8 gusting 13 17.8
2017-Mar-30 10:53 197 8 gusting 12 17.2
2017-Mar-30 10:48 197 9 gusting 14 17.8
2017-Mar-30 10:43 209 4 gusting 10 17.8
2017-Mar-30 10:33 204 7 gusting 12 17.2
2017-Mar-30 10:23 181 7 gusting 14 16.7
2017-Mar-30 10:13 191 7 gusting 12 17.2
2017-Mar-30 10:03 203 5 gusting 8 17.8
2017-Mar-30 09:58 186 3 gusting 10 17.8
2017-Mar-30 09:53 156 5 gusting 8 17.8
2017-Mar-30 09:43 188 1 gusting 5 17.8
2017-Mar-30 09:28 167 2 gusting 6 17.8
2017-Mar-30 09:23 139 1 gusting 2 17.8
2017-Mar-30 09:08 139 1 gusting 5 17.2
2017-Mar-30 09:03 140 1 gusting 4 17.2
2017-Mar-30 08:58 140 0 gusting 2 17.2
2017-Mar-30 08:53 144 0 gusting 4 17.2
2017-Mar-30 08:38 144 0 gusting 2 16.7
2017-Mar-30 08:33 144 0 gusting 2 16.7
2017-Mar-30 08:28 144 2 gusting 4 16.1
2017-Mar-30 08:18 217 0 gusting 2 16.1
2017-Mar-30 08:13 217 0 gusting 1 16.1
2017-Mar-30 08:08 217 16.1
2017-Mar-30 07:43 225 0 gusting 2 15.6
2017-Mar-30 07:38 225 15.6
2017-Mar-30 07:23 225 15.0
2017-Mar-30 07:18 225 14.4
2017-Mar-30 07:13 225 13.9
2017-Mar-30 07:03 225 13.9
2017-Mar-30 06:43 225 13.3
2017-Mar-30 06:28 225 11.7
2017-Mar-30 06:13 225 11.1
2017-Mar-30 06:03 225 11.1
2017-Mar-30 05:58 225 11.1
2017-Mar-30 05:38 225 11.1
2017-Mar-30 05:28 225 11.1
2017-Mar-30 05:23 225 11.1
2017-Mar-30 05:13 225 0 gusting 1 11.1
2017-Mar-30 05:08 225 11.1
2017-Mar-30 04:58 225 0 gusting 1 11.1
2017-Mar-30 04:43 225 11.1
2017-Mar-30 04:28 225 0 gusting 1 11.1
2017-Mar-30 04:08 225 0 gusting 1 11.1
2017-Mar-30 03:53 225 0 gusting 1 11.1
2017-Mar-30 03:48 225 11.1
2017-Mar-30 03:43 225 11.1
2017-Mar-30 03:38 225 0 gusting 1 11.1
2017-Mar-30 03:13 225 11.7
2017-Mar-30 03:08 225 1 gusting 2 11.7
2017-Mar-30 03:03 225 0 gusting 1 11.7
2017-Mar-30 02:53 225 11.7
2017-Mar-30 02:48 225 11.7
2017-Mar-30 02:38 225 11.7
2017-Mar-30 02:33 225 11.7
2017-Mar-30 02:23 225 11.7
2017-Mar-30 02:13 225 0 gusting 2 11.7
2017-Mar-30 01:58 225 11.7
2017-Mar-30 01:53 225 11.7
2017-Mar-30 01:43 225 11.7
2017-Mar-30 01:38 225 11.7
2017-Mar-30 01:33 225 0 gusting 1 12.2
2017-Mar-30 01:28 225 12.2
2017-Mar-30 01:23 225 12.2
2017-Mar-30 01:18 225 12.2
2017-Mar-30 00:58 225 12.2
2017-Mar-30 00:43 225 1 gusting 2 12.2
2017-Mar-30 00:33 225 12.8
2017-Mar-30 00:28 225 12.8
2017-Mar-30 00:23 225 12.8
2017-Mar-30 00:13 225 1 gusting 2 12.8
2017-Mar-30 00:08 225 13.3
2017-Mar-30 00:03 225 0 gusting 1 12.8
2017-Mar-29 23:48 225 13.3
2017-Mar-29 23:43 225 13.3
2017-Mar-29 23:38 225 0 gusting 1 13.3
2017-Mar-29 23:33 225 13.3
2017-Mar-29 23:18 225 13.3
2017-Mar-29 23:13 225 0 gusting 2 13.3
2017-Mar-29 23:03 225 13.3
2017-Mar-29 22:58 225 1 gusting 2 13.3
2017-Mar-29 22:43 225 2 gusting 4 12.8
2017-Mar-29 22:38 225 1 gusting 2 13.3
2017-Mar-29 22:33 225 13.3
2017-Mar-29 22:28 225 0 gusting 2 13.3
2017-Mar-29 22:23 225 13.3
2017-Mar-29 22:18 225 0 gusting 1 13.3
2017-Mar-29 22:03 225 13.9
2017-Mar-29 21:58 225 13.9
2017-Mar-29 21:53 225 13.9
2017-Mar-29 21:48 225 13.9
2017-Mar-29 21:38 225 13.9
2017-Mar-29 21:18 225 14.4
2017-Mar-29 21:13 225 0 gusting 1 14.4
2017-Mar-29 21:08 225 14.4
2017-Mar-29 20:58 225 14.4
2017-Mar-29 20:53 225 0 gusting 1 14.4
2017-Mar-29 20:48 225 14.4
2017-Mar-29 20:28 225 1 gusting 2 15.0
2017-Mar-29 20:23 225 15.0
2017-Mar-29 20:18 225 0 gusting 2 15.0
2017-Mar-29 20:08 225 15.0
2017-Mar-29 19:58 225 15.6
2017-Mar-29 19:48 225 15.6
2017-Mar-29 19:43 225 0 gusting 2 15.6
2017-Mar-29 19:33 225 0 gusting 2 15.6
2017-Mar-29 19:28 225 15.6
2017-Mar-29 19:23 225 15.6
2017-Mar-29 19:08 225 16.1
2017-Mar-29 18:53 225 16.1
2017-Mar-29 18:48 225 0 gusting 1 16.7
2017-Mar-29 18:38 225 1 gusting 1 16.1
2017-Mar-29 18:33 225 0 gusting 1 16.7
2017-Mar-29 18:28 225 16.7
2017-Mar-29 18:18 225 1 gusting 2 16.7
2017-Mar-29 18:13 225 0 gusting 2 16.7
2017-Mar-29 18:08 225 16.7
2017-Mar-29 18:03 225 1 gusting 2 17.2
2017-Mar-29 17:58 225 2 gusting 2 17.2
2017-Mar-29 17:48 211 1 gusting 6 17.2
2017-Mar-29 17:43 215 2 gusting 6 17.2
2017-Mar-29 17:38 214 2 gusting 6 17.2
2017-Mar-29 17:33 220 5 gusting 8 17.2
2017-Mar-29 17:28 225 4 gusting 8 17.2
2017-Mar-29 17:23 203 5 gusting 7 17.8
2017-Mar-29 17:18 208 4 gusting 8 17.8
2017-Mar-29 17:08 191 3 gusting 7 18.3
2017-Mar-29 16:53 218 4 gusting 6 18.3
2017-Mar-29 16:48 205 4 gusting 8 18.3
2017-Mar-29 16:23 215 2 gusting 8 18.3
2017-Mar-29 16:13 200 4 gusting 6 18.9
2017-Mar-29 16:08 260 1 gusting 7 18.3
2017-Mar-29 15:53 200 5 gusting 8 18.3
2017-Mar-29 15:38 211 4 gusting 7 18.9
2017-Mar-29 15:28 196 2 gusting 6 18.9
2017-Mar-29 15:23 203 3 gusting 7 18.9
2017-Mar-29 15:18 221 5 gusting 7 18.9
2017-Mar-29 15:13 182 3 gusting 6 18.9
2017-Mar-29 15:03 215 2 gusting 6 18.9
2017-Mar-29 14:58 175 4 gusting 8 18.9
2017-Mar-29 14:48 215 4 gusting 6 18.9
2017-Mar-29 14:43 167 3 gusting 6 18.9
2017-Mar-29 14:38 225 6 gusting 8 18.9
2017-Mar-29 14:33 186 3 gusting 8 18.9
2017-Mar-29 14:23 200 5 gusting 10 18.9
2017-Mar-29 14:18 208 5 gusting 8 18.9
2017-Mar-29 14:03 191 3 gusting 7 18.9
2017-Mar-29 13:58 172 2 gusting 6 18.9
2017-Mar-29 13:53 219 4 gusting 6 18.9
2017-Mar-29 13:43 173 3 gusting 6 18.3
2017-Mar-29 13:38 159 3 gusting 10 18.3
2017-Mar-29 13:28 148 5 gusting 7 18.3
2017-Mar-29 13:18 156 5 gusting 10 18.9
2017-Mar-29 13:13 195 4 gusting 7 18.9
2017-Mar-29 13:08 153 4 gusting 6 18.9
2017-Mar-29 12:58 145 2 gusting 7 18.9
2017-Mar-29 12:48 153 2 gusting 6 18.9
2017-Mar-29 12:38 205 2 gusting 6 18.9
2017-Mar-29 12:08 165 2 gusting 6 18.9
2017-Mar-29 12:03 170 3 gusting 7 18.9
2017-Mar-29 11:48 183 2 gusting 5 18.9
2017-Mar-29 11:38 156 2 gusting 6 18.3
2017-Mar-29 11:33 161 3 gusting 6 18.3
2017-Mar-29 11:23 170 3 gusting 6 18.3
2017-Mar-29 11:03 146 2 gusting 6 18.3
2017-Mar-29 10:58 139 3 gusting 6 18.9
2017-Mar-29 10:53 150 2 gusting 6 18.3
2017-Mar-29 10:43 157 3 gusting 6 18.3
2017-Mar-29 10:38 180 2 gusting 6 18.3
2017-Mar-29 10:28 159 1 gusting 4 18.9
2017-Mar-29 10:23 155 0 gusting 4 18.3
2017-Mar-29 10:13 141 1 gusting 4 18.3
2017-Mar-29 10:08 161 2 gusting 5 18.9
2017-Mar-29 10:03 140 1 gusting 5 18.3
2017-Mar-29 09:58 140 1 gusting 2 18.3
2017-Mar-29 09:48 137 2 gusting 4 18.3
2017-Mar-29 09:33 171 1 gusting 4 17.8
2017-Mar-29 09:13 146 1 gusting 4 18.3
2017-Mar-29 09:08 145 1 gusting 5 18.3
2017-Mar-29 09:03 185 1 gusting 5 18.3
2017-Mar-29 08:53 188 18.3
2017-Mar-29 08:43 188 17.8
2017-Mar-29 08:38 188 0 gusting 2 17.8
2017-Mar-29 08:28 188 0 gusting 2 17.2
2017-Mar-29 08:23 188 1 gusting 2 17.2
2017-Mar-29 08:18 188 0 gusting 2 17.2
2017-Mar-29 08:08 188 17.2
2017-Mar-29 08:03 188 17.2
2017-Mar-29 07:48 188 16.1
2017-Mar-29 07:38 188 15.6
2017-Mar-29 07:33 188 1 gusting 4 15.6
2017-Mar-29 07:18 188 14.4
2017-Mar-29 07:13 188 13.9
2017-Mar-29 07:08 188 13.9
2017-Mar-29 07:03 188 13.3
2017-Mar-29 06:58 188 0 gusting 2 12.8
2017-Mar-29 06:53 188 12.2
2017-Mar-29 06:48 188 0 gusting 1 12.2
2017-Mar-29 06:38 188 11.7
2017-Mar-29 06:33 188 11.7
2017-Mar-29 06:28 188 11.7
2017-Mar-29 06:23 188 11.7
2017-Mar-29 06:18 188 11.1
2017-Mar-29 06:13 188 11.1
2017-Mar-29 06:08 188 11.1
2017-Mar-29 06:03 188 11.1
2017-Mar-29 05:53 188 0 gusting 2 11.1
2017-Mar-29 05:48 188 0 gusting 2 11.1
2017-Mar-29 05:33 188 10.6
2017-Mar-29 05:28 188 10.6
2017-Mar-29 05:23 188 10.6
2017-Mar-29 05:18 188 10.6
2017-Mar-29 05:08 188 10.6
2017-Mar-29 05:03 188 10.6
2017-Mar-29 04:58 188 10.6
2017-Mar-29 04:48 188 11.1
2017-Mar-29 04:43 188 11.1
2017-Mar-29 04:38 188 11.1
2017-Mar-29 04:33 188 1 gusting 2 11.1
2017-Mar-29 04:28 188 0 gusting 1 11.1
2017-Mar-29 04:23 188 11.1
2017-Mar-29 04:18 188 11.1
2017-Mar-29 04:13 188 11.1
2017-Mar-29 03:58 188 11.7
2017-Mar-29 03:38 188 1 gusting 2 11.1
2017-Mar-29 03:33 188 1 gusting 2 11.1
2017-Mar-29 03:28 188 11.1
2017-Mar-29 03:23 188 0 gusting 2 11.1
2017-Mar-29 03:13 188 11.1
2017-Mar-29 03:08 188 0 gusting 1 11.1
2017-Mar-29 03:03 188 11.1
2017-Mar-29 02:58 188 11.1
2017-Mar-29 02:23 188 11.1
2017-Mar-29 02:18 188 11.1
2017-Mar-29 02:13 188 11.1
2017-Mar-29 02:03 188 11.1
2017-Mar-29 01:53 188 11.7
2017-Mar-29 01:38 188 1 gusting 2 11.7
2017-Mar-29 01:28 188 11.1
2017-Mar-29 01:23 188 11.1
2017-Mar-29 01:18 188 11.1
2017-Mar-29 00:58 188 11.1
2017-Mar-29 00:53 188 11.1
2017-Mar-29 00:48 188 0 gusting 1 11.1
2017-Mar-29 00:43 188 0 gusting 1 11.1
2017-Mar-29 00:18 188 1 gusting 2 11.1
2017-Mar-29 00:13 188 0 gusting 2 11.1
2017-Mar-29 00:08 188 0 gusting 2 11.1
2017-Mar-28 23:58 188 1 gusting 2 11.7
2017-Mar-28 23:53 188 1 gusting 2 11.7
2017-Mar-28 23:43 188 1 gusting 2 11.1
2017-Mar-28 23:38 188 1 gusting 2 11.1
2017-Mar-28 23:28 188 11.1
2017-Mar-28 23:23 188 1 gusting 1 11.1
2017-Mar-28 23:18 188 1 gusting 2 11.1
2017-Mar-28 23:08 188 11.1
2017-Mar-28 22:58 188 11.1
2017-Mar-28 22:48 188 11.7
2017-Mar-28 22:38 188 11.7
2017-Mar-28 22:33 188 11.7
2017-Mar-28 22:28 188 11.7
2017-Mar-28 22:23 188 11.7
2017-Mar-28 22:03 188 2 gusting 2 11.1
2017-Mar-28 21:58 188 11.1
2017-Mar-28 21:48 188 11.7
2017-Mar-28 21:38 188 11.7
2017-Mar-28 21:28 188 2 gusting 2 11.7
2017-Mar-28 21:23 188 11.7
2017-Mar-28 21:18 188 0 gusting 2 11.7
2017-Mar-28 21:13 188 0 gusting 2 11.7
2017-Mar-28 21:03 188 1 gusting 2 11.7
2017-Mar-28 20:53 188 0 gusting 2 12.2
2017-Mar-28 20:43 188 12.8
2017-Mar-28 20:38 188 12.8
2017-Mar-28 20:33 188 12.8
2017-Mar-28 20:18 188 0 gusting 1 12.8
2017-Mar-28 20:08 188 12.8
2017-Mar-28 20:03 188 12.8
2017-Mar-28 19:58 188 12.8
2017-Mar-28 19:53 188 12.8
2017-Mar-28 19:48 188 12.8
2017-Mar-28 19:28 188 13.3
2017-Mar-28 19:18 188 0 gusting 2 13.3
2017-Mar-28 19:13 188 1 gusting 2 13.3
2017-Mar-28 19:03 188 13.9
2017-Mar-28 18:53 188 13.9
2017-Mar-28 18:48 188 13.9
2017-Mar-28 18:43 188 13.9
2017-Mar-28 18:38 188 13.9
2017-Mar-28 18:28 188 14.4
2017-Mar-28 18:18 188 14.4
2017-Mar-28 18:08 188 14.4
2017-Mar-28 17:58 188 14.4
2017-Mar-28 17:48 163 0 gusting 4 15.0
2017-Mar-28 17:43 161 15.0
2017-Mar-28 17:38 161 15.0
2017-Mar-28 17:28 176 0 gusting 4 15.0
2017-Mar-28 17:08 202 1 gusting 5 15.0
2017-Mar-28 17:03 183 1 gusting 6 15.0
2017-Mar-28 16:48 178 1 gusting 6 15.0
2017-Mar-28 16:43 174 2 gusting 6 15.0
2017-Mar-28 16:38 181 2 gusting 6 15.0
2017-Mar-28 16:33 158 2 gusting 6 15.0
2017-Mar-28 16:28 168 2 gusting 6 15.0
2017-Mar-28 16:23 172 5 gusting 6 15.0
2017-Mar-28 16:13 211 5 gusting 6 15.0
2017-Mar-28 16:08 176 5 gusting 6 15.0
2017-Mar-28 15:53 147 4 gusting 8 15.0
2017-Mar-28 15:48 174 3 gusting 8 15.0
2017-Mar-28 15:43 173 3 gusting 6 15.0
2017-Mar-28 15:38 169 4 gusting 6 15.0
2017-Mar-28 15:33 169 4 gusting 6 15.0
2017-Mar-28 15:23 187 5 gusting 8 15.0
2017-Mar-28 15:03 167 4 gusting 7 15.6
2017-Mar-28 14:58 163 4 gusting 7 15.6
2017-Mar-28 14:48 155 4 gusting 7 15.6
2017-Mar-28 14:33 147 2 gusting 7 15.6
2017-Mar-28 14:28 143 4 gusting 7 15.6
2017-Mar-28 14:23 143 5 gusting 7 15.6
2017-Mar-28 14:18 161 4 gusting 7 15.6
2017-Mar-28 14:13 185 4 gusting 10 15.6
2017-Mar-28 14:08 146 5 gusting 7 15.6